GABS Airport Information

Runway Information
Runway 06 Length 8879 ft width 148 ft
Elevation 1187 ft Threshold 0 ft Heading 57
Runway 24 Length 8879 ft Width 148 ft
Elevation 1244 ft Threshold 0 ft Heading 237
Airport Frequencies
Type A/G Name A/G Frequency 667.3 MHZ
Type ACC Name ACC Frequency 119.1 MHZ
Type TWR Name TWR Frequency 118.3 MHZ
Airport Navaids
Type VOR-DME Name Bamako/Senou Frequency 113700 KHZ
Type NDB Name Bamako/Senou Frequency 301 KHZ
Airport Weather Information & NOTAM
ADDS - METARS form results

(2355 UTC 01 August 2021)
Data provider http://aviationweather.gov/metar/data/
 
METAR text: GABS 012330Z 19003KT 160V220 9999 FEW020 23/23 Q1016 NOSIG
Conditions at: GABS (BAMAKO/SENOU (MI, ML) observed 2330 UTC 01 August 2021
Temperature: 23.0°C (73°F)
Dewpoint: 23.0°C (73°F) [RH = 100%]
Pressure (altimeter): 30.00 inches Hg (1016.0 mb)
Winds: from the S (190 degrees) at 3 MPH (3 knots; 1.5 m/s)
Visibility: 6 or more miles (10+ km)
Ceiling: at least 12,000 feet AGL
Clouds: few clouds at 2000 feet AGL
Weather: no significant weather observed at this time

METAR text: GABS 012300Z 11002KT 9999 FEW020 23/23 Q1016 NOSIG
Conditions at: GABS (BAMAKO/SENOU (MI, ML) observed 2300 UTC 01 August 2021
Temperature: 23.0°C (73°F)
Dewpoint: 23.0°C (73°F) [RH = 100%]
Pressure (altimeter): 30.00 inches Hg (1016.0 mb)
Winds: from the ESE (110 degrees) at 2 MPH (2 knots; 1.0 m/s)
Visibility: 6 or more miles (10+ km)
Ceiling: at least 12,000 feet AGL
Clouds: few clouds at 2000 feet AGL
Weather: no significant weather observed at this time

Forecast for: GABS (BAMAKO/SENOU (MI, ML)
Text: TAF GABS 012330Z 0200/0306 23008KT 9999 FEW020
Forecast period: 0000 UTC 02 August 2021 to 0600 UTC 03 August 2021
Forecast type: FROM: standard forecast or significant change
Winds: from the SW (230 degrees) at 9 MPH (8 knots; 4.1 m/s)
Visibility: 6 or more miles (10+ km)
Ceiling: at least 12,000 feet AGL
Clouds: few clouds at 2000 feet AGL
Weather: no significant weather forecast for this period
Text: PROB40
Forecast period: 1200 to 1800 UTC 02 August 2021
Forecast type: TEMPORARY: The following changes expected for less than half the time period
Winds: from the E (80 degrees) at 21 MPH (18 knots; 9.3 m/s)
gusting to 40 MPH (35 knots; 18.0 m/s)
Visibility: 2.49 miles (4.01 km)
Ceiling: at least 12,000 feet AGL
Clouds: scattered clouds at 2000 feet AGL
few clouds at 3000 feet AGL
Weather: TSRA  (rain associated with thunderstorm(s))
Text: TEMPO 0212/0218 08018G35KT 4000 TSRA SCT020 FEW030CB
Forecast period: 1800 UTC 02 August 2021 to 0000 UTC 03 August 2021
Forecast type: TEMPORARY: The following changes expected for less than half the time period
Visibility: 2.49 miles (4.01 km)
Ceiling: 2000 feet AGL
Clouds: broken clouds at 2000 feet AGL
few clouds at 3000 feet AGL
Weather: TSRA  (rain associated with thunderstorm(s))